Time;durP1;ratioP1;P1;durP2;ratioP2;P2;SDS_P1;SDS_P2;PMS_P1;PMS_P2;Temp;Humidity;BMP_temperature;BMP_pressure;BME280_temperature;BME280_humidity;BME280_pressure;Samples;Min_cycle;Max_cycle;Signal;HPM_P1;HPM_P2
2022/03/29 00:00:07;;;;;;;;;;;;;;;19.34;56.14;99088.81;2054919;28;20064;-50
2022/03/29 00:01:10;;;;;;;;;;;;;;;19.35;55.78;99095.00;2057950;28;19938;-49
2022/03/29 00:02:10;;;;;;;;;;;;;;;19.34;56.09;99093.34;2052984;28;20335;-52
2022/03/29 00:03:12;;;;;;;;;;;;;;;19.33;56.24;99089.81;2053064;28;19933;-51
2022/03/29 00:04:12;;;;;;;;;;;;;;;19.33;55.94;99089.81;2054104;28;20396;-50
2022/03/29 00:05:14;;;;;;;;;;;;;;;19.32;55.97;99090.84;2055682;28;19922;-52
2022/03/29 00:06:16;;;;;;;;;;;;;;;19.32;55.99;99084.66;2054695;28;19926;-53
2022/03/29 00:07:16;;;;;;;;;;;;;;;19.31;56.23;99080.31;2056146;28;19953;-51
2022/03/29 00:08:18;;;;;;;;;;;;;;;19.32;56.18;99079.25;2052722;28;20340;-49
2022/03/29 00:09:18;;;;;;;;;;;;;;;19.32;56.02;99087.34;2050461;28;19930;-51
2022/03/29 00:10:20;;;;;;;;;;;;;;;19.31;56.21;99086.50;2056429;28;19921;-49
2022/03/29 00:11:21;;;;;;;;;;;;;;;19.30;56.03;99079.44;2055494;28;19961;-51
2022/03/29 00:12:23;;;;;;;;;;;;;;;19.29;55.85;99083.19;2054444;28;20543;-50
2022/03/29 00:13:23;;;;;;;;;;;;;;;19.30;56.01;99084.00;2054608;28;19933;-50
2022/03/29 00:14:25;;;;;;;;;;;;;;;19.29;56.22;99085.88;2056949;28;21551;-52
2022/03/29 00:15:26;;;;;;;;;;;;;;;19.30;55.91;99090.22;2056147;28;19925;-51
2022/03/29 00:18:07;;;;;;;;;;;;;;;19.28;56.31;99075.28;2056124;28;20550;-58
2022/03/29 00:19:08;;;;;;;;;;;;;;;19.28;55.97;99077.97;2052225;28;19926;-50
2022/03/29 00:20:10;;;;;;;;;;;;;;;19.28;56.11;99068.09;2057442;28;20848;-51
2022/03/29 00:21:11;;;;;;;;;;;;;;;19.27;56.28;99070.97;2052132;28;19973;-51
2022/03/29 00:22:13;;;;;;;;;;;;;;;19.26;56.30;99072.81;2053021;28;19926;-50
2022/03/29 00:23:13;;;;;;;;;;;;;;;19.28;56.02;99073.47;2055134;28;19926;-51
2022/03/29 00:24:15;;;;;;;;;;;;;;;19.25;55.85;99065.78;2057055;28;20507;-51
2022/03/29 00:25:15;;;;;;;;;;;;;;;19.26;56.29;99064.75;2048298;28;19969;-52
2022/03/29 00:26:17;;;;;;;;;;;;;;;19.26;56.15;99072.00;2048962;28;19953;-51
2022/03/29 00:27:18;;;;;;;;;;;;;;;19.26;56.22;99070.13;2054644;28;20024;-51
2022/03/29 00:28:19;;;;;;;;;;;;;;;19.24;56.19;99064.09;2056414;28;19933;-51
2022/03/29 00:29:20;;;;;;;;;;;;;;;19.25;55.95;99057.72;2051759;28;19936;-52
2022/03/29 00:30:21;;;;;;;;;;;;;;;19.25;55.88;99063.09;2057284;28;19928;-50
2022/03/29 00:31:22;;;;;;;;;;;;;;;19.25;56.09;99057.72;2053094;28;19926;-53
2022/03/29 00:32:23;;;;;;;;;;;;;;;19.24;56.12;99061.41;2055596;28;20014;-51
2022/03/29 00:33:26;;;;;;;;;;;;;;;19.25;55.84;99057.72;2055748;28;19960;-51
2022/03/29 00:34:27;;;;;;;;;;;;;;;19.23;55.97;99059.78;2055155;28;19921;-52
2022/03/29 00:35:29;;;;;;;;;;;;;;;19.24;55.97;99060.59;2055034;28;20568;-52
2022/03/29 00:36:29;;;;;;;;;;;;;;;19.25;55.93;99070.31;2056920;28;19957;-51
2022/03/29 00:37:31;;;;;;;;;;;;;;;19.24;55.92;99066.81;2056522;28;19928;-50
2022/03/29 00:38:32;;;;;;;;;;;;;;;19.23;56.00;99057.09;2055474;28;19933;-51
2022/03/29 00:39:33;;;;;;;;;;;;;;;19.23;55.95;99057.09;2056575;28;19922;-53
2022/03/29 00:40:35;;;;;;;;;;;;;;;19.23;56.03;99064.31;2055473;28;20049;-50
2022/03/29 00:41:35;;;;;;;;;;;;;;;19.23;55.82;99064.31;2057395;28;19925;-52
2022/03/29 00:42:37;;;;;;;;;;;;;;;19.22;56.10;99060.78;2053491;28;19926;-52
2022/03/29 00:43:37;;;;;;;;;;;;;;;19.21;56.14;99059.13;2055573;28;20573;-54
2022/03/29 00:44:39;;;;;;;;;;;;;;;19.22;56.23;99059.94;2054272;28;20013;-52
2022/03/29 00:45:40;;;;;;;;;;;;;;;19.20;55.97;99058.31;2056085;28;19926;-49
2022/03/29 00:46:41;;;;;;;;;;;;;;;19.21;56.01;99059.13;2055867;28;20380;-48
2022/03/29 00:47:42;;;;;;;;;;;;;;;19.19;56.03;99059.34;2056751;28;19925;-51
2022/03/29 00:48:45;;;;;;;;;;;;;;;19.19;56.09;99056.66;2052339;28;20312;-52
2022/03/29 00:49:46;;;;;;;;;;;;;;;19.19;56.28;99059.34;2052819;28;19932;-50
2022/03/29 00:50:47;;;;;;;;;;;;;;;19.20;55.97;99054.78;2053367;28;19933;-50
2022/03/29 00:51:49;;;;;;;;;;;;;;;19.19;56.22;99053.09;2055667;28;20328;-52
2022/03/29 00:52:50;;;;;;;;;;;;;;;19.18;56.06;99054.16;2052940;28;19921;-51
2022/03/29 00:53:52;;;;;;;;;;;;;;;19.18;56.19;99051.47;2057301;28;19926;-50
2022/03/29 00:54:52;;;;;;;;;;;;;;;19.19;56.30;99053.09;2053657;28;20415;-49
2022/03/29 00:55:54;;;;;;;;;;;;;;;19.18;56.13;99048.78;2053346;28;19932;-52
2022/03/29 00:56:56;;;;;;;;;;;;;;;19.17;56.17;99047.13;2054739;28;20365;-50
2022/03/29 00:57:58;;;;;;;;;;;;;;;19.18;56.33;99046.09;2053546;28;20011;-49
2022/03/29 00:58:58;;;;;;;;;;;;;;;19.16;56.04;99048.94;2049313;28;20551;-51
2022/03/29 01:00:00;;;;;;;;;;;;;;;19.16;56.21;99042.75;2055495;28;19922;-50
2022/03/29 01:01:01;;;;;;;;;;;;;;;19.15;56.19;99049.16;2054383;28;19976;-49
2022/03/29 01:02:03;;;;;;;;;;;;;;;19.16;56.31;99048.13;2055256;28;19972;-51
2022/03/29 01:03:04;;;;;;;;;;;;;;;19.14;56.08;99042.13;2053226;28;19933;-50
2022/03/29 01:04:08;;;;;;;;;;;;;;;19.14;56.18;99045.66;2052786;28;19922;-57
2022/03/29 01:05:11;;;;;;;;;;;;;;;19.13;56.33;99043.97;2054822;28;19922;-51
2022/03/29 01:06:11;;;;;;;;;;;;;;;19.14;56.05;99040.28;2056273;28;19922;-51
2022/03/29 01:07:13;;;;;;;;;;;;;;;19.13;56.02;99037.78;2050360;28;20482;-51
2022/03/29 01:08:15;;;;;;;;;;;;;;;19.14;56.34;99039.44;2050276;28;20568;-53
2022/03/29 01:09:16;;;;;;;;;;;;;;;19.13;56.00;99035.09;2054048;28;19930;-51
2022/03/29 01:10:17;;;;;;;;;;;;;;;19.12;56.46;99030.75;2053130;28;20312;-52
2022/03/29 01:11:18;;;;;;;;;;;;;;;19.13;56.04;99024.31;2051948;28;19929;-51
2022/03/29 01:12:19;;;;;;;;;;;;;;;19.12;56.22;99025.38;2057688;28;19965;-52
2022/03/29 01:13:20;;;;;;;;;;;;;;;19.10;56.26;99022.03;2055884;28;20016;-51
2022/03/29 01:14:22;;;;;;;;;;;;;;;19.10;56.02;99022.03;2052136;28;19932;-51
2022/03/29 01:15:23;;;;;;;;;;;;;;;19.08;56.18;99013.31;2053342;28;20677;-49
2022/03/29 01:17:45;;;;;;;;;;;;;;;19.08;56.15;99013.31;2053491;28;19929;-51
2022/03/29 01:18:46;;;;;;;;;;;;;;;19.09;56.34;99015.00;2055423;28;19937;-51
2022/03/29 01:19:48;;;;;;;;;;;;;;;19.08;56.30;99008.78;2055359;28;19940;-52
2022/03/29 01:20:50;;;;;;;;;;;;;;;19.08;56.30;99010.63;2057061;28;19949;-53
2022/03/29 01:21:55;;;;;;;;;;;;;;;19.07;56.16;99009.00;2056584;28;19921;-53
2022/03/29 01:22:58;;;;;;;;;;;;;;;19.07;56.37;99006.31;2058231;28;19926;-52
2022/03/29 01:23:59;;;;;;;;;;;;;;;19.07;56.16;99000.94;2054953;28;19926;-53
2022/03/29 01:25:01;;;;;;;;;;;;;;;19.08;55.95;99002.56;2053528;28;19926;-52
2022/03/29 01:26:02;;;;;;;;;;;;;;;19.06;56.27;98999.28;2053059;28;20372;-49
2022/03/29 01:27:05;;;;;;;;;;;;;;;19.04;56.09;99001.31;2052089;28;19922;-51
2022/03/29 01:28:07;;;;;;;;;;;;;;;19.05;56.29;99003.78;2053621;28;20093;-48
2022/03/29 01:29:08;;;;;;;;;;;;;;;19.04;56.28;98999.47;2055681;28;19925;-51
2022/03/29 01:30:10;;;;;;;;;;;;;;;19.04;56.19;99002.16;2056899;28;19957;-51
2022/03/29 01:31:11;;;;;;;;;;;;;;;19.03;55.89;99005.88;2054106;28;20633;-49
2022/03/29 01:32:13;;;;;;;;;;;;;;;19.04;56.33;99001.31;2054823;28;20012;-51
2022/03/29 01:33:14;;;;;;;;;;;;;;;19.03;56.38;99003.19;2054906;28;19929;-51
2022/03/29 01:34:15;;;;;;;;;;;;;;;19.02;56.19;98990.75;2054498;28;19965;-50
2022/03/29 01:35:18;;;;;;;;;;;;;;;19.02;56.44;98996.13;2052571;28;19937;-50
2022/03/29 01:36:18;;;;;;;;;;;;;;;19.01;56.23;98999.03;2057238;28;19975;-49
2022/03/29 01:37:21;;;;;;;;;;;;;;;19.00;56.24;98998.22;2054587;28;19945;-48
2022/03/29 01:38:23;;;;;;;;;;;;;;;19.01;56.25;98997.16;2047251;28;20396;-52
2022/03/29 01:39:23;;;;;;;;;;;;;;;19.01;56.42;98988.28;2053054;28;19980;-51
2022/03/29 01:40:26;;;;;;;;;;;;;;;19.00;56.27;98995.53;2054274;28;19992;-50
2022/03/29 01:41:27;;;;;;;;;;;;;;;19.01;56.42;98990.97;2054884;28;19936;-52
2022/03/29 01:42:28;;;;;;;;;;;;;;;18.97;56.59;98991.38;2054857;28;19960;-52
2022/03/29 01:43:29;;;;;;;;;;;;;;;19.00;56.27;98994.66;2056165;28;19926;-49
2022/03/29 01:44:31;;;;;;;;;;;;;;;18.97;56.38;98990.50;2053687;28;20320;-52
2022/03/29 01:45:32;;;;;;;;;;;;;;;18.97;56.31;98991.38;2058450;28;20435;-53
2022/03/29 01:46:33;;;;;;;;;;;;;;;18.99;56.15;98988.47;2054833;28;19926;-50
2022/03/29 01:47:34;;;;;;;;;;;;;;;18.98;56.42;98984.94;2056411;28;19922;-51
2022/03/29 01:48:35;;;;;;;;;;;;;;;18.98;56.42;98984.13;2051892;28;19929;-51
2022/03/29 01:49:37;;;;;;;;;;;;;;;18.97;56.28;98986.00;2054781;28;19980;-51
2022/03/29 01:50:38;;;;;;;;;;;;;;;18.97;56.25;98985.13;2052742;28;19926;-51
2022/03/29 01:51:39;;;;;;;;;;;;;;;18.96;56.42;98987.00;2053773;28;19926;-50
2022/03/29 01:52:45;;;;;;;;;;;;;;;18.96;56.52;98987.00;2055988;28;20068;-52
2022/03/29 01:53:52;;;;;;;;;;;;;;;18.94;56.43;98983.69;2054040;28;19926;-53
2022/03/29 01:54:53;;;;;;;;;;;;;;;18.94;56.41;98983.69;2054173;28;20042;-51
2022/03/29 01:55:54;;;;;;;;;;;;;;;18.94;56.44;98978.31;2054596;28;19922;-50
2022/03/29 01:56:56;;;;;;;;;;;;;;;18.95;56.45;98979.16;2054316;28;20037;-49
2022/03/29 01:57:58;;;;;;;;;;;;;;;18.96;56.50;98976.25;2053508;28;20427;-53
2022/03/29 01:58:58;;;;;;;;;;;;;;;18.95;56.04;98971.91;2051266;28;19926;-52
2022/03/29 02:01:19;;;;;;;;;;;;;;;18.94;56.18;98967.56;2051462;28;19929;-50
2022/03/29 02:02:20;;;;;;;;;;;;;;;18.94;56.05;98964.03;2051907;28;19926;-50
2022/03/29 02:03:21;;;;;;;;;;;;;;;18.94;56.25;98964.03;2054140;28;21105;-53
2022/03/29 02:04:22;;;;;;;;;;;;;;;18.94;56.45;98959.50;2054535;28;20361;-50
2022/03/29 02:05:24;;;;;;;;;;;;;;;18.93;56.05;98951.63;2054937;28;19930;-51
2022/03/29 02:06:24;;;;;;;;;;;;;;;18.92;56.68;98950.81;2052435;28;20016;-51
2022/03/29 02:07:26;;;;;;;;;;;;;;;18.93;56.30;98952.44;2052841;28;25881;-51
2022/03/29 02:08:28;;;;;;;;;;;;;;;18.93;56.27;98941.69;2047668;28;19937;-52
2022/03/29 02:09:29;;;;;;;;;;;;;;;18.92;56.27;98940.06;2054803;28;19925;-54
2022/03/29 02:10:30;;;;;;;;;;;;;;;18.92;56.21;98932.00;2052530;28;19929;-49
2022/03/29 02:11:31;;;;;;;;;;;;;;;18.92;56.04;98928.47;2055624;28;19977;-49
2022/03/29 02:12:33;;;;;;;;;;;;;;;18.92;56.37;98929.31;2052678;28;19972;-49
2022/03/29 02:13:34;;;;;;;;;;;;;;;18.91;56.20;98932.16;2052814;28;19922;-53
2022/03/29 02:14:35;;;;;;;;;;;;;;;18.90;56.06;98925.16;2055341;28;19926;-50
2022/03/29 02:15:37;;;;;;;;;;;;;;;18.91;56.27;98930.31;2053280;28;20029;-51
2022/03/29 02:16:37;;;;;;;;;;;;;;;18.91;56.33;98934.88;2051408;28;20509;-50
2022/03/29 02:17:39;;;;;;;;;;;;;;;18.90;56.28;98927.84;2053145;28;19933;-53
2022/03/29 02:18:40;;;;;;;;;;;;;;;18.89;56.07;98924.31;2051344;28;19968;-51
2022/03/29 02:19:41;;;;;;;;;;;;;;;18.89;56.51;98926.19;2053014;28;19926;-50
2022/03/29 02:20:42;;;;;;;;;;;;;;;18.90;56.22;98922.47;2057483;28;19925;-50
2022/03/29 02:21:43;;;;;;;;;;;;;;;18.89;56.23;98920.81;2052725;28;20420;-54
2022/03/29 02:22:44;;;;;;;;;;;;;;;18.89;56.56;98920.81;2052687;28;19926;-52
2022/03/29 02:23:47;;;;;;;;;;;;;;;18.89;56.55;98918.94;2056115;28;19926;-50
2022/03/29 02:24:48;;;;;;;;;;;;;;;18.90;56.08;98914.41;2054400;28;20331;-52
2022/03/29 02:25:49;;;;;;;;;;;;;;;18.89;56.22;98913.56;2051627;28;19929;-50
2022/03/29 02:26:50;;;;;;;;;;;;;;;18.88;56.39;98911.91;2048728;28;19930;-50
2022/03/29 02:27:52;;;;;;;;;;;;;;;18.88;56.27;98911.06;2054353;28;20609;-49
2022/03/29 02:28:52;;;;;;;;;;;;;;;18.88;56.23;98914.59;2053464;28;19984;-50
2022/03/29 02:29:54;;;;;;;;;;;;;;;18.87;56.25;98912.94;2049492;28;19930;-53
2022/03/29 02:30:54;;;;;;;;;;;;;;;18.87;56.08;98909.44;2054163;28;20285;-52
2022/03/29 02:31:56;;;;;;;;;;;;;;;18.86;56.43;98908.59;2055950;28;20004;-53
2022/03/29 02:32:56;;;;;;;;;;;;;;;18.85;56.37;98901.53;2056503;28;19933;-50
2022/03/29 02:33:58;;;;;;;;;;;;;;;18.85;56.23;98896.16;2054773;28;19926;-53
2022/03/29 02:34:58;;;;;;;;;;;;;;;18.86;56.60;98897.00;2056749;28;19921;-52
2022/03/29 02:36:00;;;;;;;;;;;;;;;18.86;56.38;98891.63;2057250;28;20514;-50
2022/03/29 02:37:01;;;;;;;;;;;;;;;18.87;56.45;98894.13;2050549;28;19933;-51
2022/03/29 02:38:02;;;;;;;;;;;;;;;18.87;56.38;98894.13;2051720;28;19945;-51
2022/03/29 02:39:04;;;;;;;;;;;;;;;18.89;56.46;98886.69;2055287;28;20033;-50
2022/03/29 02:40:07;;;;;;;;;;;;;;;18.88;56.43;98892.25;2055255;28;20054;-53
2022/03/29 02:41:08;;;;;;;;;;;;;;;18.87;56.24;98888.75;2054579;28;19929;-52
2022/03/29 02:42:10;;;;;;;;;;;;;;;18.88;56.15;98886.88;2056804;28;19981;-49
2022/03/29 02:43:10;;;;;;;;;;;;;;;18.86;56.11;98876.34;2055904;28;19933;-53
2022/03/29 02:44:12;;;;;;;;;;;;;;;18.85;56.06;98879.22;2052646;28;19961;-54
2022/03/29 02:45:15;;;;;;;;;;;;;;;18.84;56.40;98882.94;2055619;28;19929;-51
2022/03/29 02:46:16;;;;;;;;;;;;;;;18.82;56.52;98885.81;2053131;28;19956;-49
2022/03/29 02:47:17;;;;;;;;;;;;;;;18.82;56.12;98880.44;2056227;28;20589;-52
2022/03/29 02:48:19;;;;;;;;;;;;;;;18.83;56.52;98881.28;2055201;28;19937;-52
2022/03/29 02:49:19;;;;;;;;;;;;;;;18.85;56.40;98884.59;2053128;28;19974;-51
2022/03/29 02:50:22;;;;;;;;;;;;;;;18.83;56.22;98882.09;2055719;28;19929;-49
2022/03/29 02:51:23;;;;;;;;;;;;;;;18.84;56.48;98877.56;2057108;28;19926;-52
2022/03/29 02:52:25;;;;;;;;;;;;;;;18.84;56.22;98882.94;2056051;28;20374;-58
2022/03/29 02:53:25;;;;;;;;;;;;;;;18.81;56.38;98884.19;2052544;28;19922;-55
2022/03/29 02:54:28;;;;;;;;;;;;;;;18.82;56.34;98879.63;2056050;28;19936;-52
2022/03/29 02:55:29;;;;;;;;;;;;;;;18.82;56.24;98880.44;2057834;28;19928;-55
2022/03/29 02:56:31;;;;;;;;;;;;;;;18.81;56.55;98881.50;2055933;28;20025;-55
2022/03/29 02:57:31;;;;;;;;;;;;;;;18.80;56.25;98882.50;2055421;28;19926;-59
2022/03/29 02:58:34;;;;;;;;;;;;;;;18.81;56.31;98876.13;2056362;28;19925;-54
2022/03/29 02:59:34;;;;;;;;;;;;;;;18.82;56.29;98874.25;2053689;28;19933;-52
2022/03/29 03:00:36;;;;;;;;;;;;;;;18.81;56.41;98884.19;2056765;28;20040;-49
2022/03/29 03:01:36;;;;;;;;;;;;;;;18.81;56.46;98877.97;2056562;28;19996;-54
2022/03/29 03:02:38;;;;;;;;;;;;;;;18.80;56.42;98873.59;2053840;28;20490;-50
2022/03/29 03:03:38;;;;;;;;;;;;;;;18.78;56.26;98870.28;2056449;28;20761;-52
2022/03/29 03:04:40;;;;;;;;;;;;;;;18.79;56.19;98875.47;2055436;28;19987;-47
2022/03/29 03:05:41;;;;;;;;;;;;;;;18.78;56.40;98865.75;2051160;28;19945;-54
2022/03/29 03:06:43;;;;;;;;;;;;;;;18.76;56.26;98873.19;2054255;28;20533;-52
2022/03/29 03:07:45;;;;;;;;;;;;;;;18.76;56.51;98875.88;2056968;28;19921;-53
2022/03/29 03:08:46;;;;;;;;;;;;;;;18.74;56.50;98864.50;2055644;28;19925;-58
2022/03/29 03:09:48;;;;;;;;;;;;;;;18.77;56.44;98874.00;2055817;28;19922;-54
2022/03/29 03:10:50;;;;;;;;;;;;;;;18.77;56.30;98872.16;2054877;28;20020;-57
2022/03/29 03:11:51;;;;;;;;;;;;;;;18.77;56.30;98872.16;2054390;28;19973;-55
2022/03/29 03:12:52;;;;;;;;;;;;;;;18.78;56.27;98871.13;2054645;28;20071;-53
2022/03/29 03:13:53;;;;;;;;;;;;;;;18.77;56.50;98863.25;2052248;28;19929;-57
2022/03/29 03:14:54;;;;;;;;;;;;;;;18.75;56.27;98868.84;2051678;28;19925;-55
2022/03/29 03:15:55;;;;;;;;;;;;;;;18.74;56.34;98867.19;2052805;28;19933;-52
2022/03/29 03:16:57;;;;;;;;;;;;;;;18.74;56.46;98865.31;2056357;28;19961;-54
2022/03/29 03:17:58;;;;;;;;;;;;;;;18.75;56.34;98868.84;2055421;28;20129;-53
2022/03/29 03:18:59;;;;;;;;;;;;;;;18.74;56.55;98861.81;2051168;28;19930;-51
2022/03/29 03:20:00;;;;;;;;;;;;;;;18.75;56.55;98858.09;2052020;28;19972;-52
2022/03/29 03:21:01;;;;;;;;;;;;;;;18.74;56.46;98857.25;2054080;28;19933;-56
2022/03/29 03:22:02;;;;;;;;;;;;;;;18.73;56.44;98858.25;2055243;28;19926;-51
2022/03/29 03:23:04;;;;;;;;;;;;;;;18.72;56.29;98853.94;2056250;28;19921;-51
2022/03/29 03:24:05;;;;;;;;;;;;;;;18.70;56.54;98853.28;2055332;28;20012;-52
2022/03/29 03:25:08;;;;;;;;;;;;;;;18.70;56.44;98855.97;2053025;28;19936;-55
2022/03/29 03:26:10;;;;;;;;;;;;;;;18.70;56.67;98855.16;2052657;28;19942;-57
2022/03/29 03:27:11;;;;;;;;;;;;;;;18.69;56.53;98859.69;2053991;28;20334;-56
2022/03/29 03:28:12;;;;;;;;;;;;;;;18.71;56.39;98859.47;2056384;28;19922;-56
2022/03/29 03:29:13;;;;;;;;;;;;;;;18.71;56.40;98862.16;2055501;28;20643;-53
2022/03/29 03:30:16;;;;;;;;;;;;;;;18.71;56.40;98865.69;2057099;28;19929;-55
2022/03/29 03:31:16;;;;;;;;;;;;;;;18.69;56.34;98862.38;2055182;28;20295;-51
2022/03/29 03:32:18;;;;;;;;;;;;;;;18.69;56.18;98869.59;2054978;28;20009;-52
2022/03/29 03:33:19;;;;;;;;;;;;;;;18.69;56.37;98869.59;2056949;28;19922;-57
2022/03/29 03:34:20;;;;;;;;;;;;;;;18.69;56.32;98869.59;2057765;28;19925;-52
2022/03/29 03:35:21;;;;;;;;;;;;;;;18.67;56.42;98866.28;2057632;28;20024;-55
2022/03/29 03:36:22;;;;;;;;;;;;;;;18.67;56.24;98861.75;2054122;28;19926;-52
2022/03/29 03:37:23;;;;;;;;;;;;;;;18.69;56.60;98858.84;2052101;28;19933;-56
2022/03/29 03:38:25;;;;;;;;;;;;;;;18.70;56.44;98860.53;2057080;28;20638;-57
2022/03/29 03:39:25;;;;;;;;;;;;;;;18.67;56.39;98855.56;2053489;28;19922;-52
2022/03/29 03:40:28;;;;;;;;;;;;;;;18.67;56.29;98851.00;2054168;28;19944;-59
2022/03/29 03:41:29;;;;;;;;;;;;;;;18.66;56.59;98859.25;2056814;28;19925;-55
2022/03/29 03:42:31;;;;;;;;;;;;;;;18.66;56.53;98853.88;2051609;28;20033;-52
2022/03/29 03:43:32;;;;;;;;;;;;;;;18.67;56.50;98860.91;2054782;28;19926;-58
2022/03/29 03:44:33;;;;;;;;;;;;;;;18.65;56.53;98861.09;2049926;28;19929;-55
2022/03/29 03:45:35;;;;;;;;;;;;;;;18.66;56.62;98860.06;2052981;28;20601;-53
2022/03/29 03:46:35;;;;;;;;;;;;;;;18.67;56.55;98860.91;2053413;28;19937;-51
2022/03/29 03:48:56;;;;;;;;;;;;;;;18.65;56.64;98858.41;2055254;28;19926;-53
2022/03/29 03:49:57;;;;;;;;;;;;;;;18.65;56.55;98862.97;2056097;28;19926;-50
2022/03/29 03:50:59;;;;;;;;;;;;;;;18.65;56.30;98862.97;2054373;28;19973;-51
2022/03/29 03:51:59;;;;;;;;;;;;;;;18.64;56.56;98861.31;2055901;28;19991;-52
2022/03/29 03:53:01;;;;;;;;;;;;;;;18.64;56.53;98864.00;2060779;28;19930;-49
2022/03/29 03:54:02;;;;;;;;;;;;;;;18.63;56.52;98859.66;2055357;28;19930;-50
2022/03/29 03:55:04;;;;;;;;;;;;;;;18.63;56.33;98859.66;2058595;28;20079;-49
2022/03/29 03:56:07;;;;;;;;;;;;;;;18.63;56.46;98859.66;2057070;28;19956;-54
2022/03/29 03:57:09;;;;;;;;;;;;;;;18.62;56.51;98860.69;2056584;28;19952;-49
2022/03/29 03:58:09;;;;;;;;;;;;;;;18.63;56.42;98867.69;2053215;28;19926;-50
2022/03/29 03:59:11;;;;;;;;;;;;;;;18.63;56.43;98865.00;2052262;28;20392;-50
2022/03/29 04:00:12;;;;;;;;;;;;;;;18.62;56.57;98869.56;2054875;28;20016;-51
2022/03/29 04:01:14;;;;;;;;;;;;;;;18.62;56.51;98868.75;2056637;28;19929;-48
2022/03/29 04:02:14;;;;;;;;;;;;;;;18.60;56.28;98865.41;2055661;28;19928;-51
2022/03/29 04:03:16;;;;;;;;;;;;;;;18.60;56.59;98868.09;2054256;28;19986;-51
2022/03/29 04:04:17;;;;;;;;;;;;;;;18.58;56.44;98862.91;2052714;28;19932;-50
2022/03/29 04:05:19;;;;;;;;;;;;;;;18.57;56.55;98860.44;2054452;28;19932;-54
2022/03/29 04:06:19;;;;;;;;;;;;;;;18.53;56.69;98850.09;2053672;28;19936;-51
2022/03/29 04:07:21;;;;;;;;;;;;;;;18.51;56.72;98857.50;2055825;28;20615;-54
2022/03/29 04:08:23;;;;;;;;;;;;;;;18.53;56.51;98860.00;2052106;28;19929;-48
2022/03/29 04:09:24;;;;;;;;;;;;;;;18.54;56.68;98853.59;2054046;28;19926;-51
2022/03/29 04:10:26;;;;;;;;;;;;;;;18.54;56.69;98857.13;2056024;28;19930;-50
2022/03/29 04:11:28;;;;;;;;;;;;;;;18.57;56.35;98861.25;2053541;28;19988;-48
2022/03/29 04:12:29;;;;;;;;;;;;;;;18.61;56.52;98861.69;2057453;28;19925;-52
2022/03/29 04:13:30;;;;;;;;;;;;;;;18.64;56.29;98858.63;2053218;28;19925;-52
2022/03/29 04:14:32;;;;;;;;;;;;;;;18.68;56.27;98859.88;2052999;28;19926;-54
2022/03/29 04:15:33;;;;;;;;;;;;;;;18.72;56.42;98863.81;2054135;28;19983;-52
2022/03/29 04:16:34;;;;;;;;;;;;;;;18.78;56.08;98867.59;2055836;28;21097;-52
2022/03/29 04:17:35;;;;;;;;;;;;;;;18.84;55.94;98866.81;2052798;28;19980;-50
2022/03/29 04:18:36;;;;;;;;;;;;;;;18.87;56.10;98867.25;2055426;28;20300;-51
2022/03/29 04:19:38;;;;;;;;;;;;;;;18.88;56.04;98862.69;2049829;28;19921;-52
2022/03/29 04:20:38;;;;;;;;;;;;;;;18.91;55.79;98868.50;2055696;28;19921;-53
2022/03/29 04:21:40;;;;;;;;;;;;;;;18.93;55.95;98861.06;2053514;28;20010;-51
2022/03/29 04:22:40;;;;;;;;;;;;;;;18.97;55.99;98862.34;2053436;28;19952;-52
2022/03/29 04:23:42;;;;;;;;;;;;;;;19.01;55.88;98859.25;2056507;28;20593;-54
2022/03/29 04:24:42;;;;;;;;;;;;;;;19.04;55.93;98861.53;2055226;28;19980;-49
2022/03/29 04:25:44;;;;;;;;;;;;;;;19.05;55.86;98860.50;2056341;28;19930;-52
2022/03/29 04:26:47;;;;;;;;;;;;;;;19.06;55.63;98857.63;2057205;28;19925;-50
2022/03/29 04:27:48;;;;;;;;;;;;;;;19.09;55.62;98856.38;2051382;28;19945;-50
2022/03/29 04:28:49;;;;;;;;;;;;;;;19.10;55.80;98858.84;2050516;28;19932;-52
2022/03/29 04:29:51;;;;;;;;;;;;;;;19.13;55.67;98857.63;2053706;28;20398;-48
2022/03/29 04:30:55;;;;;;;;;;;;;;;19.14;55.56;98862.00;2055468;28;19922;-51
2022/03/29 04:31:56;;;;;;;;;;;;;;;19.16;55.61;98855.34;2055709;28;19932;-51
2022/03/29 04:32:57;;;;;;;;;;;;;;;19.18;55.71;98864.06;2056728;28;19934;-51
2022/03/29 04:33:59;;;;;;;;;;;;;;;19.19;55.50;98864.88;2056327;28;19934;-52
2022/03/29 04:35:01;;;;;;;;;;;;;;;19.21;55.32;98860.13;2055355;28;19926;-51
2022/03/29 04:36:01;;;;;;;;;;;;;;;19.21;55.66;98857.44;2052719;28;19922;-50
2022/03/29 04:37:03;;;;;;;;;;;;;;;19.22;55.35;98859.09;2055710;28;19925;-50
2022/03/29 04:38:04;;;;;;;;;;;;;;;19.23;55.73;98855.41;2057014;28;19930;-49
2022/03/29 04:39:05;;;;;;;;;;;;;;;19.23;55.60;98850.03;2051819;28;19922;-52
2022/03/29 04:40:09;;;;;;;;;;;;;;;19.24;55.64;98851.66;2055184;28;19926;-51
2022/03/29 04:41:10;;;;;;;;;;;;;;;19.25;55.50;98847.09;2054890;28;19926;-51
2022/03/29 04:42:13;;;;;;;;;;;;;;;19.25;55.46;98852.50;2052531;28;19941;-50
2022/03/29 04:43:14;;;;;;;;;;;;;;;19.27;55.72;98855.81;2053197;28;19922;-52
2022/03/29 04:44:15;;;;;;;;;;;;;;;19.28;55.39;98847.56;2054426;28;19965;-52
2022/03/29 04:45:17;;;;;;;;;;;;;;;19.28;55.33;98854.78;2056984;28;19929;-52
2022/03/29 04:46:18;;;;;;;;;;;;;;;19.28;55.81;98852.94;2052770;28;19928;-50
2022/03/29 04:47:19;;;;;;;;;;;;;;;19.28;55.79;98852.94;2051722;28;20343;-50
2022/03/29 04:48:20;;;;;;;;;;;;;;;19.30;55.55;98850.84;2053721;28;19925;-52
2022/03/29 04:49:21;;;;;;;;;;;;;;;19.31;55.73;98851.72;2050965;28;19980;-51
2022/03/29 04:50:22;;;;;;;;;;;;;;;19.32;55.72;98845.28;2058224;28;19930;-51
2022/03/29 04:51:23;;;;;;;;;;;;;;;19.32;55.29;98843.41;2054996;28;19976;-53
2022/03/29 04:52:25;;;;;;;;;;;;;;;19.33;55.39;98842.38;2055339;28;20016;-49
2022/03/29 04:53:25;;;;;;;;;;;;;;;19.32;55.58;98838.03;2054086;28;19937;-51
2022/03/29 04:54:27;;;;;;;;;;;;;;;19.33;55.58;98838.88;2054830;28;20751;-49
2022/03/29 04:55:27;;;;;;;;;;;;;;;19.34;55.55;98843.22;2053938;28;21979;-51
2022/03/29 04:56:29;;;;;;;;;;;;;;;19.34;55.41;98843.22;2052446;28;19936;-52
2022/03/29 04:57:31;;;;;;;;;;;;;;;19.35;55.53;98842.19;2048535;28;20674;-52
2022/03/29 04:58:33;;;;;;;;;;;;;;;19.35;55.57;98845.69;2054007;28;19952;-51
2022/03/29 04:59:34;;;;;;;;;;;;;;;19.35;55.44;98840.31;2052836;28;19965;-50
2022/03/29 05:00:35;;;;;;;;;;;;;;;19.35;55.44;98840.31;2053924;28;20479;-51
2022/03/29 05:01:36;;;;;;;;;;;;;;;19.36;55.23;98842.00;2053403;28;19925;-55
2022/03/29 05:02:38;;;;;;;;;;;;;;;19.36;55.29;98843.81;2055290;28;19922;-51
2022/03/29 05:03:39;;;;;;;;;;;;;;;19.37;55.47;98840.13;2049657;28;19936;-57
2022/03/29 05:04:40;;;;;;;;;;;;;;;19.36;55.35;98831.25;2048484;28;20679;-59
2022/03/29 05:05:41;;;;;;;;;;;;;;;19.37;55.31;98835.56;2054735;28;20284;-56
2022/03/29 05:06:42;;;;;;;;;;;;;;;19.37;55.44;98840.94;2052587;28;19925;-48
2022/03/29 05:07:43;;;;;;;;;;;;;;;19.38;55.32;98839.91;2050260;28;19932;-51
2022/03/29 05:08:45;;;;;;;;;;;;;;;19.37;55.38;98840.94;2058044;28;19926;-56
2022/03/29 05:09:45;;;;;;;;;;;;;;;19.37;55.38;98834.75;2057595;28;19922;-50
2022/03/29 05:10:47;;;;;;;;;;;;;;;19.37;55.14;98834.75;2057191;28;19922;-54
2022/03/29 05:11:47;;;;;;;;;;;;;;;19.39;55.17;98838.06;2055959;28;19925;-55
2022/03/29 05:12:51;;;;;;;;;;;;;;;19.38;55.35;98842.59;2057049;28;19987;-55
2022/03/29 05:13:51;;;;;;;;;;;;;;;19.37;55.55;98835.56;2055226;28;20288;-54
2022/03/29 05:14:53;;;;;;;;;;;;;;;19.36;55.31;98844.69;2053981;28;19930;-54
2022/03/29 05:15:55;;;;;;;;;;;;;;;19.37;55.24;98835.56;2058680;28;20394;-51
2022/03/29 05:16:55;;;;;;;;;;;;;;;19.37;55.16;98838.25;2058497;28;19967;-54
2022/03/29 05:17:57;;;;;;;;;;;;;;;19.36;55.19;98839.31;2057173;28;19976;-50
2022/03/29 05:18:58;;;;;;;;;;;;;;;19.37;55.31;98840.94;2055654;28;19929;-56
2022/03/29 05:19:59;;;;;;;;;;;;;;;19.38;55.34;98841.78;2053528;28;19926;-54
2022/03/29 05:21:01;;;;;;;;;;;;;;;19.37;55.54;98837.44;2053533;28;19934;-55
2022/03/29 05:22:02;;;;;;;;;;;;;;;19.38;55.58;98839.91;2059398;28;20383;-54
2022/03/29 05:23:06;;;;;;;;;;;;;;;19.36;55.36;98833.94;2054417;28;20056;-54
2022/03/29 05:24:07;;;;;;;;;;;;;;;19.36;55.65;98833.06;2051918;28;20285;-56
2022/03/29 05:25:08;;;;;;;;;;;;;;;19.36;55.44;98839.31;2058627;28;19928;-53